Greensboro Bend, Vermont
Current Conditions -  °F | °C
As of 6:54 AM on Wednesday 28 Jan 2015 (Local Time) from KMVL Reporting Station
Overcast Overcast  
Wind Chill: -12°   Ceiling: 8500
Heat Index:   Visibility: 10mi
Dew Point: -4°   Wind: 13mph
Humidity: 66%   Direction: 350°N
Pressure: 30"   Gusts: 22mph
Location:  44.55°N, 72.27°W
Report Text: KMVL 281154Z AUTO 35011G19KT 10SM OVC085 M15/M20 A3000 RMK AO2 SLP179 60000 70003 T11501200 11144 21156 53028 TSNO
Loading
Personal Weather Stations






























Interactive Weather Map New forecast layout! Learn more

10-Day Weather Forecast

Advertisements
Track Severe Weather on mobile